Portada
METAR-TAF:

METAR-TAF

Aeropuertos :

Base Aérea de Almagro

Almagro, España

latitud: 38-57-11N, longitud: 3-44-29W, altitud: 629 m

Observación

El informe se hizo hace 22 minutos, a las 13:00 UTC
Viento 7 kt del este-noreste, variando entre norte-noreste y este-sureste
Temperatura 16°C
Humedad 68%
Presión 1016 hPa
Visibilidad 10 km o más
Nubes dispersas a una altura de 3600 ft

METAR: LEAO 151300Z 07007KT 030V120 9999 SCT036 16/10 Q1016

Hora: 14:22 (13:22 UTC)

Pronóstico

El informe se hizo hace 2 horas y 22 minutos, a las 11:00 UTC
Pronóstico válido del 15 a las 12 UTC al 15 a las 21 UTC
Viento 9 kt del este
Visibilidad 10 km o más
sin nubes por debajo de 1500 m y sin presencia de cumulonimbus.
Probabilidad 30% :
Temporalmente
del 15 a las 12 UTC al 15 a las 18 UTC
Nubes dispersas a una altura de 3000 ft, Cumulus congestus.
chaparrones de lluvia

TAF: LEAO 151100Z 1512/1521 08009KT CAVOK PROB30 TEMPO 1512/1518 SHRA SCT030TCU

Observaciones y pronósticos meteorológicos de más de 4000 aeropuertos (mensajes METAR y TAF).

Los puntos amarillos y rojos representan las estaciones disponibles.

Ponga el ratón en el punto deseado para ver el nombre de la estación.

Haga clic para ver las observaciones y los pronósticos meteorológicos.

Para cambiar el mapa : haga clic en los botones verdes con una cruz de color negro para hacer un zoom, en el botón verde con un guión para alejar o en las flechas verdes para mapas adyacentes.


METAR-TAF: